sensor_id;sensor_type;location;lat;lon;timestamp;P1;durP1;ratioP1;P2;durP2;ratioP2
17991;SDS011;9121;50.926;5.340;2022-08-27T00:01:07;7.57;;;2.05;;
17991;SDS011;9121;50.926;5.340;2022-08-27T00:03:34;12.32;;;2.50;;
17991;SDS011;9121;50.926;5.340;2022-08-27T00:06:03;7.15;;;2.60;;
17991;SDS011;9121;50.926;5.340;2022-08-27T00:08:30;10.18;;;2.50;;
17991;SDS011;9121;50.926;5.340;2022-08-27T00:10:58;4.95;;;2.20;;
17991;SDS011;9121;50.926;5.340;2022-08-27T00:13:25;6.05;;;2.35;;
17991;SDS011;9121;50.926;5.340;2022-08-27T00:15:52;5.05;;;2.13;;
17991;SDS011;9121;50.926;5.340;2022-08-27T00:18:19;9.50;;;2.28;;
17991;SDS011;9121;50.926;5.340;2022-08-27T00:20:46;7.82;;;2.47;;
17991;SDS011;9121;50.926;5.340;2022-08-27T00:23:14;12.70;;;3.08;;
17991;SDS011;9121;50.926;5.340;2022-08-27T00:25:41;8.43;;;2.88;;
17991;SDS011;9121;50.926;5.340;2022-08-27T00:28:10;9.77;;;3.10;;
17991;SDS011;9121;50.926;5.340;2022-08-27T00:30:37;10.13;;;3.22;;
17991;SDS011;9121;50.926;5.340;2022-08-27T00:33:04;9.25;;;2.90;;
17991;SDS011;9121;50.926;5.340;2022-08-27T00:35:31;7.60;;;2.90;;
17991;SDS011;9121;50.926;5.340;2022-08-27T00:37:58;8.05;;;3.40;;
17991;SDS011;9121;50.926;5.340;2022-08-27T00:40:26;5.28;;;3.13;;
17991;SDS011;9121;50.926;5.340;2022-08-27T00:42:53;11.18;;;3.75;;
17991;SDS011;9121;50.926;5.340;2022-08-27T00:45:22;11.90;;;4.00;;
17991;SDS011;9121;50.926;5.340;2022-08-27T00:47:50;11.65;;;3.35;;
17991;SDS011;9121;50.926;5.340;2022-08-27T00:50:21;11.40;;;3.83;;
17991;SDS011;9121;50.926;5.340;2022-08-27T00:52:55;13.07;;;3.90;;
17991;SDS011;9121;50.926;5.340;2022-08-27T00:55:27;12.35;;;4.10;;
17991;SDS011;9121;50.926;5.340;2022-08-27T00:58:01;9.75;;;3.60;;
17991;SDS011;9121;50.926;5.340;2022-08-27T01:00:32;15.05;;;4.00;;
17991;SDS011;9121;50.926;5.340;2022-08-27T01:03:00;9.52;;;3.97;;
17991;SDS011;9121;50.926;5.340;2022-08-27T01:05:27;10.73;;;4.03;;
17991;SDS011;9121;50.926;5.340;2022-08-27T01:07:56;9.93;;;3.60;;
17991;SDS011;9121;50.926;5.340;2022-08-27T01:10:33;9.63;;;3.50;;
17991;SDS011;9121;50.926;5.340;2022-08-27T01:13:01;13.10;;;3.72;;
17991;SDS011;9121;50.926;5.340;2022-08-27T01:15:29;11.68;;;4.03;;
17991;SDS011;9121;50.926;5.340;2022-08-27T01:17:57;12.95;;;4.30;;
17991;SDS011;9121;50.926;5.340;2022-08-27T01:20:27;8.02;;;3.63;;
17991;SDS011;9121;50.926;5.340;2022-08-27T01:22:59;10.27;;;3.75;;
17991;SDS011;9121;50.926;5.340;2022-08-27T01:25:33;8.10;;;4.03;;
17991;SDS011;9121;50.926;5.340;2022-08-27T01:28:02;11.45;;;3.90;;
17991;SDS011;9121;50.926;5.340;2022-08-27T01:30:30;9.30;;;3.60;;
17991;SDS011;9121;50.926;5.340;2022-08-27T01:32:57;10.55;;;3.45;;
17991;SDS011;9121;50.926;5.340;2022-08-27T01:35:24;11.55;;;3.63;;
17991;SDS011;9121;50.926;5.340;2022-08-27T01:37:52;13.15;;;3.90;;
17991;SDS011;9121;50.926;5.340;2022-08-27T01:40:20;8.98;;;3.95;;
17991;SDS011;9121;50.926;5.340;2022-08-27T01:42:50;7.07;;;4.03;;
17991;SDS011;9121;50.926;5.340;2022-08-27T01:45:21;8.65;;;3.55;;
17991;SDS011;9121;50.926;5.340;2022-08-27T01:47:50;10.20;;;3.80;;
17991;SDS011;9121;50.926;5.340;2022-08-27T01:50:18;8.82;;;4.10;;
17991;SDS011;9121;50.926;5.340;2022-08-27T01:52:47;11.65;;;4.22;;
17991;SDS011;9121;50.926;5.340;2022-08-27T01:55:15;10.70;;;3.80;;
17991;SDS011;9121;50.926;5.340;2022-08-27T01:57:44;7.15;;;3.95;;
17991;SDS011;9121;50.926;5.340;2022-08-27T02:00:14;8.15;;;3.70;;
17991;SDS011;9121;50.926;5.340;2022-08-27T02:02:43;7.85;;;3.70;;
17991;SDS011;9121;50.926;5.340;2022-08-27T02:05:11;11.18;;;4.15;;
17991;SDS011;9121;50.926;5.340;2022-08-27T02:07:39;9.57;;;3.70;;
17991;SDS011;9121;50.926;5.340;2022-08-27T02:10:07;8.10;;;4.07;;
17991;SDS011;9121;50.926;5.340;2022-08-27T02:12:37;10.25;;;3.50;;
17991;SDS011;9121;50.926;5.340;2022-08-27T02:15:04;10.77;;;3.85;;
17991;SDS011;9121;50.926;5.340;2022-08-27T02:17:33;9.38;;;3.55;;
17991;SDS011;9121;50.926;5.340;2022-08-27T02:20:00;11.23;;;3.67;;
17991;SDS011;9121;50.926;5.340;2022-08-27T02:22:27;8.10;;;3.50;;
17991;SDS011;9121;50.926;5.340;2022-08-27T02:24:54;10.18;;;3.90;;
17991;SDS011;9121;50.926;5.340;2022-08-27T02:27:21;9.88;;;3.53;;
17991;SDS011;9121;50.926;5.340;2022-08-27T02:29:48;10.45;;;3.55;;
17991;SDS011;9121;50.926;5.340;2022-08-27T02:32:16;13.75;;;4.47;;
17991;SDS011;9121;50.926;5.340;2022-08-27T02:34:45;8.35;;;4.03;;
17991;SDS011;9121;50.926;5.340;2022-08-27T02:37:12;15.45;;;4.20;;
17991;SDS011;9121;50.926;5.340;2022-08-27T02:39:40;7.85;;;3.78;;
17991;SDS011;9121;50.926;5.340;2022-08-27T02:42:08;8.15;;;4.15;;
17991;SDS011;9121;50.926;5.340;2022-08-27T02:44:35;10.15;;;4.25;;
17991;SDS011;9121;50.926;5.340;2022-08-27T02:47:03;7.40;;;3.88;;
17991;SDS011;9121;50.926;5.340;2022-08-27T02:49:31;12.25;;;3.95;;
17991;SDS011;9121;50.926;5.340;2022-08-27T02:51:59;11.40;;;4.00;;
17991;SDS011;9121;50.926;5.340;2022-08-27T02:54:27;9.00;;;3.95;;
17991;SDS011;9121;50.926;5.340;2022-08-27T02:56:54;9.98;;;4.35;;
17991;SDS011;9121;50.926;5.340;2022-08-27T02:59:21;10.93;;;4.15;;
17991;SDS011;9121;50.926;5.340;2022-08-27T03:01:48;17.40;;;3.88;;
17991;SDS011;9121;50.926;5.340;2022-08-27T03:04:15;15.85;;;4.00;;
17991;SDS011;9121;50.926;5.340;2022-08-27T03:06:43;10.40;;;4.10;;
17991;SDS011;9121;50.926;5.340;2022-08-27T03:09:12;10.68;;;4.72;;
17991;SDS011;9121;50.926;5.340;2022-08-27T03:11:39;7.80;;;4.05;;
17991;SDS011;9121;50.926;5.340;2022-08-27T03:14:06;8.07;;;4.10;;
17991;SDS011;9121;50.926;5.340;2022-08-27T03:16:34;10.30;;;4.70;;
17991;SDS011;9121;50.926;5.340;2022-08-27T03:19:01;10.02;;;4.40;;
17991;SDS011;9121;50.926;5.340;2022-08-27T03:21:28;10.73;;;4.03;;
17991;SDS011;9121;50.926;5.340;2022-08-27T03:23:55;11.30;;;4.25;;
17991;SDS011;9121;50.926;5.340;2022-08-27T03:26:26;12.32;;;4.68;;
17991;SDS011;9121;50.926;5.340;2022-08-27T03:28:54;9.15;;;4.00;;
17991;SDS011;9121;50.926;5.340;2022-08-27T03:31:21;14.45;;;4.55;;
17991;SDS011;9121;50.926;5.340;2022-08-27T03:33:52;12.02;;;4.43;;
17991;SDS011;9121;50.926;5.340;2022-08-27T03:36:20;16.02;;;5.05;;
17991;SDS011;9121;50.926;5.340;2022-08-27T03:38:47;7.93;;;4.53;;
17991;SDS011;9121;50.926;5.340;2022-08-27T03:41:14;14.65;;;5.53;;
17991;SDS011;9121;50.926;5.340;2022-08-27T03:43:43;13.98;;;5.43;;
17991;SDS011;9121;50.926;5.340;2022-08-27T03:46:11;9.65;;;4.80;;
17991;SDS011;9121;50.926;5.340;2022-08-27T03:48:38;15.70;;;5.10;;
17991;SDS011;9121;50.926;5.340;2022-08-27T03:51:06;12.98;;;4.90;;
17991;SDS011;9121;50.926;5.340;2022-08-27T03:53:38;13.00;;;5.40;;
17991;SDS011;9121;50.926;5.340;2022-08-27T03:56:07;12.52;;;5.13;;
17991;SDS011;9121;50.926;5.340;2022-08-27T03:58:34;10.30;;;5.35;;
17991;SDS011;9121;50.926;5.340;2022-08-27T04:01:03;12.40;;;5.35;;
17991;SDS011;9121;50.926;5.340;2022-08-27T04:03:31;18.52;;;5.50;;
17991;SDS011;9121;50.926;5.340;2022-08-27T04:05:58;9.63;;;5.43;;
17991;SDS011;9121;50.926;5.340;2022-08-27T04:08:26;11.70;;;5.30;;
17991;SDS011;9121;50.926;5.340;2022-08-27T04:10:53;14.20;;;5.57;;
17991;SDS011;9121;50.926;5.340;2022-08-27T04:13:20;19.75;;;5.30;;
17991;SDS011;9121;50.926;5.340;2022-08-27T04:15:49;12.43;;;6.05;;
17991;SDS011;9121;50.926;5.340;2022-08-27T04:18:18;14.20;;;5.70;;
17991;SDS011;9121;50.926;5.340;2022-08-27T04:20:46;14.73;;;5.70;;
17991;SDS011;9121;50.926;5.340;2022-08-27T04:23:14;11.77;;;5.45;;
17991;SDS011;9121;50.926;5.340;2022-08-27T04:25:41;12.73;;;5.85;;
17991;SDS011;9121;50.926;5.340;2022-08-27T04:28:10;17.33;;;5.85;;
17991;SDS011;9121;50.926;5.340;2022-08-27T04:30:38;10.57;;;5.50;;
17991;SDS011;9121;50.926;5.340;2022-08-27T04:33:05;27.63;;;6.63;;
17991;SDS011;9121;50.926;5.340;2022-08-27T04:35:34;13.13;;;5.40;;
17991;SDS011;9121;50.926;5.340;2022-08-27T04:38:01;12.68;;;5.38;;
17991;SDS011;9121;50.926;5.340;2022-08-27T04:40:28;18.90;;;6.18;;
17991;SDS011;9121;50.926;5.340;2022-08-27T04:43:09;17.70;;;6.13;;
17991;SDS011;9121;50.926;5.340;2022-08-27T04:45:41;10.55;;;6.13;;
17991;SDS011;9121;50.926;5.340;2022-08-27T04:48:09;15.15;;;6.18;;
17991;SDS011;9121;50.926;5.340;2022-08-27T04:50:39;9.80;;;5.55;;
17991;SDS011;9121;50.926;5.340;2022-08-27T04:53:07;13.88;;;6.35;;
17991;SDS011;9121;50.926;5.340;2022-08-27T04:55:39;15.18;;;5.63;;
17991;SDS011;9121;50.926;5.340;2022-08-27T04:58:07;18.20;;;6.25;;
17991;SDS011;9121;50.926;5.340;2022-08-27T05:00:39;23.35;;;6.75;;
17991;SDS011;9121;50.926;5.340;2022-08-27T05:03:07;13.73;;;6.15;;
17991;SDS011;9121;50.926;5.340;2022-08-27T05:05:34;15.85;;;6.15;;
17991;SDS011;9121;50.926;5.340;2022-08-27T05:08:03;11.95;;;5.78;;
17991;SDS011;9121;50.926;5.340;2022-08-27T05:10:36;14.75;;;6.10;;
17991;SDS011;9121;50.926;5.340;2022-08-27T05:13:04;16.45;;;6.22;;
17991;SDS011;9121;50.926;5.340;2022-08-27T05:15:31;16.45;;;6.00;;
17991;SDS011;9121;50.926;5.340;2022-08-27T05:17:58;14.32;;;5.75;;
17991;SDS011;9121;50.926;5.340;2022-08-27T05:20:26;12.98;;;5.70;;
17991;SDS011;9121;50.926;5.340;2022-08-27T05:22:54;16.58;;;6.40;;
17991;SDS011;9121;50.926;5.340;2022-08-27T05:25:22;17.85;;;5.25;;
17991;SDS011;9121;50.926;5.340;2022-08-27T05:27:50;9.80;;;5.43;;
17991;SDS011;9121;50.926;5.340;2022-08-27T05:30:17;19.13;;;6.00;;
17991;SDS011;9121;50.926;5.340;2022-08-27T05:32:44;15.68;;;6.10;;
17991;SDS011;9121;50.926;5.340;2022-08-27T05:35:11;10.38;;;5.80;;
17991;SDS011;9121;50.926;5.340;2022-08-27T05:37:38;14.82;;;6.10;;
17991;SDS011;9121;50.926;5.340;2022-08-27T05:40:07;12.25;;;6.13;;
17991;SDS011;9121;50.926;5.340;2022-08-27T05:42:36;11.43;;;5.40;;
17991;SDS011;9121;50.926;5.340;2022-08-27T05:45:04;12.05;;;5.82;;
17991;SDS011;9121;50.926;5.340;2022-08-27T05:47:31;10.25;;;5.43;;
17991;SDS011;9121;50.926;5.340;2022-08-27T05:49:58;13.20;;;5.38;;
17991;SDS011;9121;50.926;5.340;2022-08-27T05:52:25;15.18;;;5.57;;
17991;SDS011;9121;50.926;5.340;2022-08-27T05:54:52;13.25;;;5.65;;
17991;SDS011;9121;50.926;5.340;2022-08-27T05:57:20;11.68;;;5.90;;
17991;SDS011;9121;50.926;5.340;2022-08-27T05:59:48;12.13;;;5.90;;
17991;SDS011;9121;50.926;5.340;2022-08-27T06:02:33;9.00;;;5.07;;
17991;SDS011;9121;50.926;5.340;2022-08-27T06:05:01;10.25;;;5.20;;
17991;SDS011;9121;50.926;5.340;2022-08-27T06:07:28;13.10;;;5.57;;
17991;SDS011;9121;50.926;5.340;2022-08-27T06:09:56;10.63;;;5.05;;
17991;SDS011;9121;50.926;5.340;2022-08-27T06:12:23;17.17;;;5.00;;
17991;SDS011;9121;50.926;5.340;2022-08-27T06:14:51;12.68;;;5.60;;
17991;SDS011;9121;50.926;5.340;2022-08-27T06:17:18;9.20;;;5.22;;
17991;SDS011;9121;50.926;5.340;2022-08-27T06:19:45;8.32;;;5.80;;
17991;SDS011;9121;50.926;5.340;2022-08-27T06:22:12;15.10;;;5.82;;
17991;SDS011;9121;50.926;5.340;2022-08-27T06:24:40;11.48;;;5.43;;
17991;SDS011;9121;50.926;5.340;2022-08-27T06:27:08;12.07;;;5.30;;
17991;SDS011;9121;50.926;5.340;2022-08-27T06:29:36;13.23;;;4.82;;
17991;SDS011;9121;50.926;5.340;2022-08-27T06:32:05;16.70;;;5.25;;
17991;SDS011;9121;50.926;5.340;2022-08-27T06:34:32;15.57;;;5.35;;
17991;SDS011;9121;50.926;5.340;2022-08-27T06:36:59;12.10;;;5.35;;
17991;SDS011;9121;50.926;5.340;2022-08-27T06:39:25;14.85;;;4.95;;
17991;SDS011;9121;50.926;5.340;2022-08-27T06:41:53;9.02;;;4.72;;
17991;SDS011;9121;50.926;5.340;2022-08-27T06:44:20;6.40;;;4.38;;
17991;SDS011;9121;50.926;5.340;2022-08-27T06:46:48;9.63;;;4.68;;
17991;SDS011;9121;50.926;5.340;2022-08-27T06:49:17;10.98;;;4.80;;
17991;SDS011;9121;50.926;5.340;2022-08-27T06:51:45;10.10;;;5.13;;
17991;SDS011;9121;50.926;5.340;2022-08-27T06:54:13;10.77;;;5.43;;
17991;SDS011;9121;50.926;5.340;2022-08-27T06:56:42;12.85;;;7.22;;
17991;SDS011;9121;50.926;5.340;2022-08-27T06:59:10;13.07;;;5.75;;
17991;SDS011;9121;50.926;5.340;2022-08-27T07:01:40;18.30;;;5.55;;
17991;SDS011;9121;50.926;5.340;2022-08-27T07:04:12;8.27;;;4.53;;
17991;SDS011;9121;50.926;5.340;2022-08-27T07:06:44;9.05;;;4.38;;
17991;SDS011;9121;50.926;5.340;2022-08-27T07:09:10;14.13;;;4.57;;
17991;SDS011;9121;50.926;5.340;2022-08-27T07:11:38;11.10;;;4.22;;
17991;SDS011;9121;50.926;5.340;2022-08-27T07:14:05;12.27;;;4.30;;
17991;SDS011;9121;50.926;5.340;2022-08-27T07:16:33;12.93;;;4.47;;
17991;SDS011;9121;50.926;5.340;2022-08-27T07:19:01;13.88;;;3.85;;
17991;SDS011;9121;50.926;5.340;2022-08-27T07:21:30;22.35;;;4.82;;
17991;SDS011;9121;50.926;5.340;2022-08-27T07:24:00;10.88;;;3.78;;
17991;SDS011;9121;50.926;5.340;2022-08-27T07:26:30;11.85;;;4.13;;
17991;SDS011;9121;50.926;5.340;2022-08-27T07:28:58;10.50;;;4.00;;
17991;SDS011;9121;50.926;5.340;2022-08-27T07:31:26;7.97;;;3.45;;
17991;SDS011;9121;50.926;5.340;2022-08-27T07:33:53;9.38;;;3.67;;
17991;SDS011;9121;50.926;5.340;2022-08-27T07:36:20;5.72;;;3.42;;
17991;SDS011;9121;50.926;5.340;2022-08-27T07:38:47;11.07;;;3.90;;
17991;SDS011;9121;50.926;5.340;2022-08-27T07:41:15;11.65;;;3.80;;
17991;SDS011;9121;50.926;5.340;2022-08-27T07:43:43;12.40;;;3.88;;
17991;SDS011;9121;50.926;5.340;2022-08-27T07:46:27;15.73;;;3.95;;
17991;SDS011;9121;50.926;5.340;2022-08-27T07:48:54;9.75;;;3.40;;
17991;SDS011;9121;50.926;5.340;2022-08-27T07:51:22;9.02;;;3.75;;
17991;SDS011;9121;50.926;5.340;2022-08-27T07:53:51;12.55;;;3.97;;
17991;SDS011;9121;50.926;5.340;2022-08-27T07:56:20;13.35;;;3.80;;
17991;SDS011;9121;50.926;5.340;2022-08-27T07:58:47;6.18;;;3.15;;
17991;SDS011;9121;50.926;5.340;2022-08-27T08:01:15;6.15;;;3.28;;
17991;SDS011;9121;50.926;5.340;2022-08-27T08:03:42;11.80;;;3.42;;
17991;SDS011;9121;50.926;5.340;2022-08-27T08:06:11;15.52;;;3.13;;
17991;SDS011;9121;50.926;5.340;2022-08-27T08:08:40;5.35;;;2.83;;
17991;SDS011;9121;50.926;5.340;2022-08-27T08:11:07;6.70;;;3.33;;
17991;SDS011;9121;50.926;5.340;2022-08-27T08:13:37;11.55;;;3.40;;
17991;SDS011;9121;50.926;5.340;2022-08-27T08:16:04;18.02;;;3.28;;
17991;SDS011;9121;50.926;5.340;2022-08-27T08:18:32;10.15;;;3.22;;
17991;SDS011;9121;50.926;5.340;2022-08-27T08:20:59;9.10;;;2.78;;
17991;SDS011;9121;50.926;5.340;2022-08-27T08:23:27;10.13;;;3.15;;
17991;SDS011;9121;50.926;5.340;2022-08-27T08:25:54;7.28;;;2.78;;
17991;SDS011;9121;50.926;5.340;2022-08-27T08:28:22;7.32;;;2.80;;
17991;SDS011;9121;50.926;5.340;2022-08-27T08:30:51;6.43;;;2.80;;
17991;SDS011;9121;50.926;5.340;2022-08-27T08:33:19;10.50;;;3.45;;
17991;SDS011;9121;50.926;5.340;2022-08-27T08:35:47;18.50;;;3.50;;
17991;SDS011;9121;50.926;5.340;2022-08-27T08:38:14;10.43;;;3.33;;
17991;SDS011;9121;50.926;5.340;2022-08-27T08:40:43;7.25;;;2.85;;
17991;SDS011;9121;50.926;5.340;2022-08-27T08:43:18;5.13;;;2.55;;
17991;SDS011;9121;50.926;5.340;2022-08-27T08:45:53;7.35;;;3.05;;
17991;SDS011;9121;50.926;5.340;2022-08-27T08:48:23;9.60;;;3.28;;
17991;SDS011;9121;50.926;5.340;2022-08-27T08:50:54;9.32;;;2.78;;
17991;SDS011;9121;50.926;5.340;2022-08-27T08:53:30;8.05;;;3.05;;
17991;SDS011;9121;50.926;5.340;2022-08-27T08:56:06;14.02;;;3.33;;
17991;SDS011;9121;50.926;5.340;2022-08-27T08:58:38;15.48;;;3.03;;
17991;SDS011;9121;50.926;5.340;2022-08-27T09:01:11;14.43;;;3.50;;
17991;SDS011;9121;50.926;5.340;2022-08-27T09:03:41;10.82;;;3.45;;
17991;SDS011;9121;50.926;5.340;2022-08-27T09:06:17;7.00;;;3.20;;
17991;SDS011;9121;50.926;5.340;2022-08-27T09:08:49;10.77;;;2.85;;
17991;SDS011;9121;50.926;5.340;2022-08-27T09:11:18;9.80;;;2.88;;
17991;SDS011;9121;50.926;5.340;2022-08-27T09:13:51;8.85;;;2.80;;
17991;SDS011;9121;50.926;5.340;2022-08-27T09:16:25;8.98;;;3.15;;
17991;SDS011;9121;50.926;5.340;2022-08-27T09:18:52;4.30;;;3.00;;
17991;SDS011;9121;50.926;5.340;2022-08-27T09:21:22;9.77;;;3.15;;
17991;SDS011;9121;50.926;5.340;2022-08-27T09:24:02;9.05;;;3.00;;
17991;SDS011;9121;50.926;5.340;2022-08-27T09:26:38;6.10;;;2.50;;
17991;SDS011;9121;50.926;5.340;2022-08-27T09:29:07;6.85;;;2.80;;
17991;SDS011;9121;50.926;5.340;2022-08-27T09:31:46;11.15;;;2.83;;
17991;SDS011;9121;50.926;5.340;2022-08-27T09:34:18;12.88;;;3.38;;
17991;SDS011;9121;50.926;5.340;2022-08-27T09:36:50;7.70;;;2.92;;
17991;SDS011;9121;50.926;5.340;2022-08-27T09:39:30;6.65;;;2.40;;
17991;SDS011;9121;50.926;5.340;2022-08-27T09:42:00;7.22;;;3.10;;
17991;SDS011;9121;50.926;5.340;2022-08-27T09:44:28;7.75;;;2.47;;
17991;SDS011;9121;50.926;5.340;2022-08-27T09:46:58;7.90;;;2.95;;
17991;SDS011;9121;50.926;5.340;2022-08-27T09:49:28;5.40;;;2.65;;
17991;SDS011;9121;50.926;5.340;2022-08-27T09:51:58;10.55;;;2.85;;
17991;SDS011;9121;50.926;5.340;2022-08-27T09:54:31;9.05;;;2.63;;
17991;SDS011;9121;50.926;5.340;2022-08-27T09:57:06;13.57;;;3.08;;
17991;SDS011;9121;50.926;5.340;2022-08-27T09:59:34;16.25;;;3.33;;
17991;SDS011;9121;50.926;5.340;2022-08-27T10:02:06;5.38;;;2.83;;
17991;SDS011;9121;50.926;5.340;2022-08-27T10:04:40;8.77;;;2.88;;
17991;SDS011;9121;50.926;5.340;2022-08-27T10:10:00;6.82;;;2.80;;
17991;SDS011;9121;50.926;5.340;2022-08-27T10:12:36;7.82;;;2.40;;
17991;SDS011;9121;50.926;5.340;2022-08-27T10:15:11;9.23;;;2.58;;
17991;SDS011;9121;50.926;5.340;2022-08-27T10:17:44;8.40;;;2.50;;
17991;SDS011;9121;50.926;5.340;2022-08-27T10:20:24;11.13;;;2.80;;
17991;SDS011;9121;50.926;5.340;2022-08-27T10:22:58;9.77;;;2.70;;
17991;SDS011;9121;50.926;5.340;2022-08-27T10:25:38;11.73;;;3.10;;
17991;SDS011;9121;50.926;5.340;2022-08-27T10:28:16;7.50;;;2.88;;
17991;SDS011;9121;50.926;5.340;2022-08-27T10:30:57;16.60;;;3.38;;
17991;SDS011;9121;50.926;5.340;2022-08-27T10:33:35;7.78;;;2.65;;
17991;SDS011;9121;50.926;5.340;2022-08-27T10:36:09;6.80;;;2.70;;
17991;SDS011;9121;50.926;5.340;2022-08-27T10:38:46;4.93;;;2.50;;
17991;SDS011;9121;50.926;5.340;2022-08-27T10:41:23;10.98;;;3.10;;
17991;SDS011;9121;50.926;5.340;2022-08-27T10:43:59;8.35;;;2.67;;
17991;SDS011;9121;50.926;5.340;2022-08-27T10:46:47;9.35;;;2.65;;
17991;SDS011;9121;50.926;5.340;2022-08-27T10:49:29;6.55;;;2.50;;
17991;SDS011;9121;50.926;5.340;2022-08-27T10:52:04;6.40;;;2.72;;
17991;SDS011;9121;50.926;5.340;2022-08-27T10:54:41;7.95;;;2.80;;
17991;SDS011;9121;50.926;5.340;2022-08-27T10:57:15;9.68;;;2.65;;
17991;SDS011;9121;50.926;5.340;2022-08-27T10:59:49;5.30;;;2.80;;
17991;SDS011;9121;50.926;5.340;2022-08-27T11:02:32;7.63;;;2.65;;
17991;SDS011;9121;50.926;5.340;2022-08-27T11:05:05;16.85;;;3.30;;
17991;SDS011;9121;50.926;5.340;2022-08-27T11:07:41;8.18;;;2.72;;
17991;SDS011;9121;50.926;5.340;2022-08-27T11:10:13;9.63;;;2.83;;
17991;SDS011;9121;50.926;5.340;2022-08-27T11:12:45;13.20;;;3.00;;
17991;SDS011;9121;50.926;5.340;2022-08-27T11:15:16;7.13;;;2.40;;
17991;SDS011;9121;50.926;5.340;2022-08-27T11:17:47;11.50;;;2.90;;
17991;SDS011;9121;50.926;5.340;2022-08-27T11:20:21;10.85;;;2.83;;
17991;SDS011;9121;50.926;5.340;2022-08-27T11:22:53;8.48;;;2.67;;
17991;SDS011;9121;50.926;5.340;2022-08-27T11:25:33;7.65;;;2.75;;
17991;SDS011;9121;50.926;5.340;2022-08-27T11:28:08;8.48;;;2.20;;
17991;SDS011;9121;50.926;5.340;2022-08-27T11:30:38;6.15;;;2.33;;
17991;SDS011;9121;50.926;5.340;2022-08-27T11:33:17;16.23;;;3.00;;
17991;SDS011;9121;50.926;5.340;2022-08-27T11:38:52;8.68;;;2.70;;
17991;SDS011;9121;50.926;5.340;2022-08-27T11:41:27;5.30;;;2.03;;
17991;SDS011;9121;50.926;5.340;2022-08-27T11:44:07;5.18;;;2.35;;
17991;SDS011;9121;50.926;5.340;2022-08-27T11:46:39;9.65;;;2.60;;
17991;SDS011;9121;50.926;5.340;2022-08-27T11:49:09;16.17;;;3.10;;
17991;SDS011;9121;50.926;5.340;2022-08-27T11:51:54;6.47;;;2.25;;
17991;SDS011;9121;50.926;5.340;2022-08-27T11:54:25;5.63;;;2.53;;
17991;SDS011;9121;50.926;5.340;2022-08-27T11:56:53;14.27;;;2.70;;
17991;SDS011;9121;50.926;5.340;2022-08-27T11:59:21;13.68;;;2.35;;
17991;SDS011;9121;50.926;5.340;2022-08-27T12:01:54;73.05;;;5.10;;
17991;SDS011;9121;50.926;5.340;2022-08-27T12:04:31;20.20;;;3.53;;
17991;SDS011;9121;50.926;5.340;2022-08-27T12:07:02;8.35;;;2.60;;
17991;SDS011;9121;50.926;5.340;2022-08-27T12:09:42;6.85;;;2.38;;
17991;SDS011;9121;50.926;5.340;2022-08-27T12:12:19;7.55;;;2.50;;
17991;SDS011;9121;50.926;5.340;2022-08-27T12:14:51;5.63;;;2.45;;
17991;SDS011;9121;50.926;5.340;2022-08-27T12:17:29;10.50;;;2.33;;
17991;SDS011;9121;50.926;5.340;2022-08-27T12:20:06;5.65;;;2.45;;
17991;SDS011;9121;50.926;5.340;2022-08-27T12:22:44;4.88;;;2.30;;
17991;SDS011;9121;50.926;5.340;2022-08-27T12:25:53;7.13;;;2.70;;
17991;SDS011;9121;50.926;5.340;2022-08-27T12:28:22;9.05;;;2.63;;
17991;SDS011;9121;50.926;5.340;2022-08-27T12:30:50;8.63;;;2.92;;
17991;SDS011;9121;50.926;5.340;2022-08-27T12:33:19;12.57;;;2.38;;
17991;SDS011;9121;50.926;5.340;2022-08-27T12:35:53;9.65;;;2.88;;
17991;SDS011;9121;50.926;5.340;2022-08-27T12:38:26;7.90;;;2.28;;
17991;SDS011;9121;50.926;5.340;2022-08-27T12:41:06;10.13;;;2.60;;
17991;SDS011;9121;50.926;5.340;2022-08-27T12:43:34;13.25;;;2.83;;
17991;SDS011;9121;50.926;5.340;2022-08-27T12:46:07;37.95;;;4.25;;
17991;SDS011;9121;50.926;5.340;2022-08-27T12:48:41;10.80;;;2.72;;
17991;SDS011;9121;50.926;5.340;2022-08-27T12:51:12;22.60;;;3.40;;
17991;SDS011;9121;50.926;5.340;2022-08-27T12:53:45;9.05;;;2.35;;
17991;SDS011;9121;50.926;5.340;2022-08-27T12:56:29;6.50;;;2.33;;
17991;SDS011;9121;50.926;5.340;2022-08-27T12:59:08;8.13;;;2.22;;
17991;SDS011;9121;50.926;5.340;2022-08-27T13:01:53;11.07;;;2.50;;
17991;SDS011;9121;50.926;5.340;2022-08-27T13:04:29;5.85;;;2.10;;
17991;SDS011;9121;50.926;5.340;2022-08-27T13:06:58;5.43;;;2.03;;
17991;SDS011;9121;50.926;5.340;2022-08-27T13:09:27;19.23;;;2.47;;
17991;SDS011;9121;50.926;5.340;2022-08-27T13:11:56;9.10;;;2.28;;
17991;SDS011;9121;50.926;5.340;2022-08-27T13:14:25;13.73;;;2.63;;
17991;SDS011;9121;50.926;5.340;2022-08-27T13:16:53;6.57;;;2.20;;
17991;SDS011;9121;50.926;5.340;2022-08-27T13:19:24;15.38;;;2.90;;
17991;SDS011;9121;50.926;5.340;2022-08-27T13:21:54;9.13;;;2.80;;
17991;SDS011;9121;50.926;5.340;2022-08-27T13:24:27;7.60;;;2.47;;
17991;SDS011;9121;50.926;5.340;2022-08-27T13:26:58;7.88;;;2.53;;
17991;SDS011;9121;50.926;5.340;2022-08-27T13:29:27;11.38;;;2.65;;
17991;SDS011;9121;50.926;5.340;2022-08-27T13:31:55;9.65;;;2.83;;
17991;SDS011;9121;50.926;5.340;2022-08-27T13:34:23;10.73;;;2.78;;
17991;SDS011;9121;50.926;5.340;2022-08-27T13:36:54;15.52;;;3.17;;
17991;SDS011;9121;50.926;5.340;2022-08-27T13:39:23;10.13;;;2.80;;
17991;SDS011;9121;50.926;5.340;2022-08-27T13:41:53;4.47;;;2.25;;
17991;SDS011;9121;50.926;5.340;2022-08-27T13:44:24;6.95;;;2.35;;
17991;SDS011;9121;50.926;5.340;2022-08-27T13:46:57;6.93;;;2.38;;
17991;SDS011;9121;50.926;5.340;2022-08-27T13:49:25;6.50;;;2.38;;
17991;SDS011;9121;50.926;5.340;2022-08-27T13:51:58;12.25;;;2.55;;
17991;SDS011;9121;50.926;5.340;2022-08-27T13:54:27;8.63;;;2.58;;
17991;SDS011;9121;50.926;5.340;2022-08-27T13:56:57;7.90;;;2.55;;
17991;SDS011;9121;50.926;5.340;2022-08-27T13:59:33;7.88;;;2.75;;
17991;SDS011;9121;50.926;5.340;2022-08-27T14:02:02;7.30;;;2.80;;
17991;SDS011;9121;50.926;5.340;2022-08-27T14:04:44;8.55;;;2.45;;
17991;SDS011;9121;50.926;5.340;2022-08-27T14:07:14;5.28;;;2.72;;
17991;SDS011;9121;50.926;5.340;2022-08-27T14:09:48;14.30;;;2.95;;
17991;SDS011;9121;50.926;5.340;2022-08-27T14:12:20;12.18;;;2.55;;
17991;SDS011;9121;50.926;5.340;2022-08-27T14:14:53;33.50;;;3.60;;
17991;SDS011;9121;50.926;5.340;2022-08-27T14:17:22;10.73;;;2.70;;
17991;SDS011;9121;50.926;5.340;2022-08-27T14:19:50;16.08;;;2.67;;
17991;SDS011;9121;50.926;5.340;2022-08-27T14:22:17;8.82;;;2.40;;
17991;SDS011;9121;50.926;5.340;2022-08-27T14:24:44;7.78;;;2.38;;
17991;SDS011;9121;50.926;5.340;2022-08-27T14:27:12;7.00;;;2.38;;
17991;SDS011;9121;50.926;5.340;2022-08-27T14:29:42;8.43;;;2.42;;
17991;SDS011;9121;50.926;5.340;2022-08-27T14:32:09;6.95;;;2.70;;
17991;SDS011;9121;50.926;5.340;2022-08-27T14:34:36;7.35;;;2.15;;
17991;SDS011;9121;50.926;5.340;2022-08-27T14:37:03;9.32;;;2.35;;
17991;SDS011;9121;50.926;5.340;2022-08-27T14:39:31;7.10;;;1.80;;
17991;SDS011;9121;50.926;5.340;2022-08-27T14:41:59;3.85;;;2.00;;
17991;SDS011;9121;50.926;5.340;2022-08-27T14:44:26;16.25;;;2.72;;
17991;SDS011;9121;50.926;5.340;2022-08-27T14:46:54;9.15;;;2.50;;
17991;SDS011;9121;50.926;5.340;2022-08-27T14:49:23;8.43;;;1.90;;
17991;SDS011;9121;50.926;5.340;2022-08-27T14:51:52;6.85;;;2.47;;
17991;SDS011;9121;50.926;5.340;2022-08-27T14:54:19;3.75;;;2.13;;
17991;SDS011;9121;50.926;5.340;2022-08-27T14:56:46;5.50;;;2.00;;
17991;SDS011;9121;50.926;5.340;2022-08-27T14:59:13;7.63;;;2.42;;
17991;SDS011;9121;50.926;5.340;2022-08-27T15:01:41;6.72;;;2.10;;
17991;SDS011;9121;50.926;5.340;2022-08-27T15:04:09;6.28;;;2.03;;
17991;SDS011;9121;50.926;5.340;2022-08-27T15:06:36;6.82;;;2.05;;
17991;SDS011;9121;50.926;5.340;2022-08-27T15:09:03;7.55;;;2.17;;
17991;SDS011;9121;50.926;5.340;2022-08-27T15:11:31;6.15;;;2.22;;
17991;SDS011;9121;50.926;5.340;2022-08-27T15:14:02;17.75;;;2.58;;
17991;SDS011;9121;50.926;5.340;2022-08-27T15:16:31;6.13;;;2.20;;
17991;SDS011;9121;50.926;5.340;2022-08-27T15:19:01;8.13;;;1.98;;